sensor_id;sensor_type;location;lat;lon;timestamp;temperature;humidity
21473;DHT22;10898;48.072;11.682;2022-08-21T00:00:24;17.90;99.90
21473;DHT22;10898;48.072;11.682;2022-08-21T00:02:27;17.90;99.90
21473;DHT22;10898;48.072;11.682;2022-08-21T00:04:30;17.90;99.90
21473;DHT22;10898;48.072;11.682;2022-08-21T00:06:32;17.90;99.90
21473;DHT22;10898;48.072;11.682;2022-08-21T00:08:35;17.90;99.90
21473;DHT22;10898;48.072;11.682;2022-08-21T00:10:38;17.80;99.90
21473;DHT22;10898;48.072;11.682;2022-08-21T00:12:41;17.80;99.90
21473;DHT22;10898;48.072;11.682;2022-08-21T00:14:43;17.80;99.90
21473;DHT22;10898;48.072;11.682;2022-08-21T00:16:47;17.80;99.90
21473;DHT22;10898;48.072;11.682;2022-08-21T00:18:49;17.80;99.90
21473;DHT22;10898;48.072;11.682;2022-08-21T00:20:51;17.70;99.90
21473;DHT22;10898;48.072;11.682;2022-08-21T00:22:53;17.70;99.90
21473;DHT22;10898;48.072;11.682;2022-08-21T00:24:57;17.70;99.90
21473;DHT22;10898;48.072;11.682;2022-08-21T00:26:59;17.70;99.90
21473;DHT22;10898;48.072;11.682;2022-08-21T00:29:01;17.60;99.90
21473;DHT22;10898;48.072;11.682;2022-08-21T00:31:03;17.60;99.90
21473;DHT22;10898;48.072;11.682;2022-08-21T00:33:06;17.40;99.90
21473;DHT22;10898;48.072;11.682;2022-08-21T00:35:09;17.60;99.90
21473;DHT22;10898;48.072;11.682;2022-08-21T00:37:13;17.50;99.90
21473;DHT22;10898;48.072;11.682;2022-08-21T00:39:14;17.50;99.90
21473;DHT22;10898;48.072;11.682;2022-08-21T00:41:16;17.50;99.90
21473;DHT22;10898;48.072;11.682;2022-08-21T00:43:39;17.50;99.90
21473;DHT22;10898;48.072;11.682;2022-08-21T00:45:41;17.50;99.90
21473;DHT22;10898;48.072;11.682;2022-08-21T00:47:43;17.40;99.90
21473;DHT22;10898;48.072;11.682;2022-08-21T00:49:45;17.40;99.90
21473;DHT22;10898;48.072;11.682;2022-08-21T00:51:53;17.40;99.90
21473;DHT22;10898;48.072;11.682;2022-08-21T00:53:59;17.40;99.90
21473;DHT22;10898;48.072;11.682;2022-08-21T00:56:05;17.40;99.90
21473;DHT22;10898;48.072;11.682;2022-08-21T00:58:12;17.40;99.90
21473;DHT22;10898;48.072;11.682;2022-08-21T01:00:22;17.30;99.90
21473;DHT22;10898;48.072;11.682;2022-08-21T01:02:24;17.30;99.90
21473;DHT22;10898;48.072;11.682;2022-08-21T01:04:26;17.30;99.90
21473;DHT22;10898;48.072;11.682;2022-08-21T01:06:28;17.30;99.90
21473;DHT22;10898;48.072;11.682;2022-08-21T01:08:31;17.30;99.90
21473;DHT22;10898;48.072;11.682;2022-08-21T01:10:34;17.20;99.90
21473;DHT22;10898;48.072;11.682;2022-08-21T01:12:39;17.20;99.90
21473;DHT22;10898;48.072;11.682;2022-08-21T01:14:42;17.20;99.90
21473;DHT22;10898;48.072;11.682;2022-08-21T01:16:49;17.20;99.90
21473;DHT22;10898;48.072;11.682;2022-08-21T01:18:52;17.20;99.90
21473;DHT22;10898;48.072;11.682;2022-08-21T01:21:10;17.20;99.90
21473;DHT22;10898;48.072;11.682;2022-08-21T01:23:14;17.10;99.90
21473;DHT22;10898;48.072;11.682;2022-08-21T01:25:17;17.10;99.90
21473;DHT22;10898;48.072;11.682;2022-08-21T01:27:21;17.10;99.90
21473;DHT22;10898;48.072;11.682;2022-08-21T01:29:29;17.10;99.90
21473;DHT22;10898;48.072;11.682;2022-08-21T01:31:32;17.10;99.90
21473;DHT22;10898;48.072;11.682;2022-08-21T01:33:34;17.00;99.90
21473;DHT22;10898;48.072;11.682;2022-08-21T01:35:37;17.00;99.90
21473;DHT22;10898;48.072;11.682;2022-08-21T01:37:40;17.00;99.90
21473;DHT22;10898;48.072;11.682;2022-08-21T01:39:43;17.00;99.90
21473;DHT22;10898;48.072;11.682;2022-08-21T01:41:46;17.00;99.90
21473;DHT22;10898;48.072;11.682;2022-08-21T01:43:48;17.00;99.90
21473;DHT22;10898;48.072;11.682;2022-08-21T01:45:50;16.90;99.90
21473;DHT22;10898;48.072;11.682;2022-08-21T01:47:52;16.90;99.90
21473;DHT22;10898;48.072;11.682;2022-08-21T01:49:54;16.90;99.90
21473;DHT22;10898;48.072;11.682;2022-08-21T01:51:56;16.90;99.90
21473;DHT22;10898;48.072;11.682;2022-08-21T01:53:58;16.80;99.90
21473;DHT22;10898;48.072;11.682;2022-08-21T01:56:01;16.80;99.90
21473;DHT22;10898;48.072;11.682;2022-08-21T01:58:03;16.80;99.90
21473;DHT22;10898;48.072;11.682;2022-08-21T02:00:09;16.80;99.90
21473;DHT22;10898;48.072;11.682;2022-08-21T02:02:12;16.80;99.90
21473;DHT22;10898;48.072;11.682;2022-08-21T02:04:14;16.80;99.90
21473;DHT22;10898;48.072;11.682;2022-08-21T02:06:16;16.70;99.90
21473;DHT22;10898;48.072;11.682;2022-08-21T02:08:19;16.70;99.90
21473;DHT22;10898;48.072;11.682;2022-08-21T02:10:29;16.70;99.90
21473;DHT22;10898;48.072;11.682;2022-08-21T02:12:31;16.70;99.90
21473;DHT22;10898;48.072;11.682;2022-08-21T02:14:33;16.70;99.90
21473;DHT22;10898;48.072;11.682;2022-08-21T02:16:35;16.60;99.90
21473;DHT22;10898;48.072;11.682;2022-08-21T02:18:38;16.60;99.90
21473;DHT22;10898;48.072;11.682;2022-08-21T02:20:47;16.60;99.90
21473;DHT22;10898;48.072;11.682;2022-08-21T02:22:56;16.60;99.90
21473;DHT22;10898;48.072;11.682;2022-08-21T02:24:58;16.60;99.90
21473;DHT22;10898;48.072;11.682;2022-08-21T02:27:00;16.60;99.90
21473;DHT22;10898;48.072;11.682;2022-08-21T02:29:03;16.60;99.90
21473;DHT22;10898;48.072;11.682;2022-08-21T02:31:06;16.50;99.90
21473;DHT22;10898;48.072;11.682;2022-08-21T02:33:09;16.50;99.90
21473;DHT22;10898;48.072;11.682;2022-08-21T02:35:11;16.50;99.90
21473;DHT22;10898;48.072;11.682;2022-08-21T02:37:13;16.50;99.90
21473;DHT22;10898;48.072;11.682;2022-08-21T02:39:15;16.50;99.90
21473;DHT22;10898;48.072;11.682;2022-08-21T02:41:27;16.50;99.90
21473;DHT22;10898;48.072;11.682;2022-08-21T02:43:29;16.40;99.90
21473;DHT22;10898;48.072;11.682;2022-08-21T02:45:31;16.40;99.90
21473;DHT22;10898;48.072;11.682;2022-08-21T02:47:33;16.40;99.90
21473;DHT22;10898;48.072;11.682;2022-08-21T02:49:35;16.40;99.90
21473;DHT22;10898;48.072;11.682;2022-08-21T02:51:37;16.40;99.90
21473;DHT22;10898;48.072;11.682;2022-08-21T02:53:40;16.30;99.90
21473;DHT22;10898;48.072;11.682;2022-08-21T02:55:44;16.40;99.90
21473;DHT22;10898;48.072;11.682;2022-08-21T02:57:47;16.30;99.90
21473;DHT22;10898;48.072;11.682;2022-08-21T02:59:49;16.30;99.90
21473;DHT22;10898;48.072;11.682;2022-08-21T03:01:51;16.30;99.90
21473;DHT22;10898;48.072;11.682;2022-08-21T03:03:53;16.20;99.90
21473;DHT22;10898;48.072;11.682;2022-08-21T03:05:55;16.20;99.90
21473;DHT22;10898;48.072;11.682;2022-08-21T03:07:58;16.20;99.90
21473;DHT22;10898;48.072;11.682;2022-08-21T03:10:01;16.20;99.90
21473;DHT22;10898;48.072;11.682;2022-08-21T03:12:02;16.20;99.90
21473;DHT22;10898;48.072;11.682;2022-08-21T03:14:05;16.20;99.90
21473;DHT22;10898;48.072;11.682;2022-08-21T03:16:07;16.20;99.90
21473;DHT22;10898;48.072;11.682;2022-08-21T03:18:11;16.20;99.90
21473;DHT22;10898;48.072;11.682;2022-08-21T03:20:16;16.20;99.90
21473;DHT22;10898;48.072;11.682;2022-08-21T03:22:19;16.20;99.90
21473;DHT22;10898;48.072;11.682;2022-08-21T03:24:20;16.10;99.90
21473;DHT22;10898;48.072;11.682;2022-08-21T03:26:23;16.10;99.90
21473;DHT22;10898;48.072;11.682;2022-08-21T03:28:26;16.10;99.90
21473;DHT22;10898;48.072;11.682;2022-08-21T03:30:28;16.10;99.90
21473;DHT22;10898;48.072;11.682;2022-08-21T03:32:30;16.10;99.90
21473;DHT22;10898;48.072;11.682;2022-08-21T03:34:32;16.10;99.90
21473;DHT22;10898;48.072;11.682;2022-08-21T03:36:34;16.10;99.90
21473;DHT22;10898;48.072;11.682;2022-08-21T03:38:37;16.10;99.90
21473;DHT22;10898;48.072;11.682;2022-08-21T03:40:41;16.00;99.90
21473;DHT22;10898;48.072;11.682;2022-08-21T03:42:43;16.00;99.90
21473;DHT22;10898;48.072;11.682;2022-08-21T03:44:46;16.00;99.90
21473;DHT22;10898;48.072;11.682;2022-08-21T03:46:48;16.00;99.90
21473;DHT22;10898;48.072;11.682;2022-08-21T03:48:50;16.00;99.90
21473;DHT22;10898;48.072;11.682;2022-08-21T03:50:53;16.00;99.90
21473;DHT22;10898;48.072;11.682;2022-08-21T03:52:56;16.00;99.90
21473;DHT22;10898;48.072;11.682;2022-08-21T03:54:58;15.90;99.90
21473;DHT22;10898;48.072;11.682;2022-08-21T03:57:00;15.90;99.90
21473;DHT22;10898;48.072;11.682;2022-08-21T03:59:02;15.90;99.90
21473;DHT22;10898;48.072;11.682;2022-08-21T04:01:06;15.90;99.90
21473;DHT22;10898;48.072;11.682;2022-08-21T04:03:08;15.90;99.90
21473;DHT22;10898;48.072;11.682;2022-08-21T04:05:11;15.90;99.90
21473;DHT22;10898;48.072;11.682;2022-08-21T04:07:13;15.90;99.90
21473;DHT22;10898;48.072;11.682;2022-08-21T04:09:15;15.90;99.90
21473;DHT22;10898;48.072;11.682;2022-08-21T04:11:17;15.90;99.90
21473;DHT22;10898;48.072;11.682;2022-08-21T04:13:19;15.80;99.90
21473;DHT22;10898;48.072;11.682;2022-08-21T04:15:22;15.80;99.90
21473;DHT22;10898;48.072;11.682;2022-08-21T04:17:24;15.80;99.90
21473;DHT22;10898;48.072;11.682;2022-08-21T04:19:26;15.80;99.90
21473;DHT22;10898;48.072;11.682;2022-08-21T04:21:29;15.80;99.90
21473;DHT22;10898;48.072;11.682;2022-08-21T04:23:31;15.80;99.90
21473;DHT22;10898;48.072;11.682;2022-08-21T04:25:33;15.80;99.90
21473;DHT22;10898;48.072;11.682;2022-08-21T04:27:35;15.80;99.90
21473;DHT22;10898;48.072;11.682;2022-08-21T04:29:37;15.80;99.90
21473;DHT22;10898;48.072;11.682;2022-08-21T04:31:40;15.80;99.90
21473;DHT22;10898;48.072;11.682;2022-08-21T04:33:42;15.70;99.90
21473;DHT22;10898;48.072;11.682;2022-08-21T04:35:44;15.80;99.90
21473;DHT22;10898;48.072;11.682;2022-08-21T04:37:46;15.80;99.90
21473;DHT22;10898;48.072;11.682;2022-08-21T04:39:48;15.80;99.90
21473;DHT22;10898;48.072;11.682;2022-08-21T04:41:54;15.80;99.90
21473;DHT22;10898;48.072;11.682;2022-08-21T04:43:56;15.80;99.90
21473;DHT22;10898;48.072;11.682;2022-08-21T04:45:58;15.70;99.90
21473;DHT22;10898;48.072;11.682;2022-08-21T04:48:03;15.80;99.90
21473;DHT22;10898;48.072;11.682;2022-08-21T04:50:11;15.80;99.90
21473;DHT22;10898;48.072;11.682;2022-08-21T04:52:16;15.70;99.90
21473;DHT22;10898;48.072;11.682;2022-08-21T04:54:20;15.80;99.90
21473;DHT22;10898;48.072;11.682;2022-08-21T04:56:27;15.80;99.90
21473;DHT22;10898;48.072;11.682;2022-08-21T04:58:30;15.80;99.90
21473;DHT22;10898;48.072;11.682;2022-08-21T05:00:34;15.80;99.90
21473;DHT22;10898;48.072;11.682;2022-08-21T05:02:37;15.80;99.90
21473;DHT22;10898;48.072;11.682;2022-08-21T05:04:43;15.80;99.90
21473;DHT22;10898;48.072;11.682;2022-08-21T05:06:46;15.80;99.90
21473;DHT22;10898;48.072;11.682;2022-08-21T05:08:52;15.80;99.90
21473;DHT22;10898;48.072;11.682;2022-08-21T05:11:03;15.80;99.90
21473;DHT22;10898;48.072;11.682;2022-08-21T05:13:06;15.80;99.90
21473;DHT22;10898;48.072;11.682;2022-08-21T05:15:09;15.80;99.90
21473;DHT22;10898;48.072;11.682;2022-08-21T05:17:14;15.80;99.90
21473;DHT22;10898;48.072;11.682;2022-08-21T05:19:16;15.90;99.90
21473;DHT22;10898;48.072;11.682;2022-08-21T05:21:17;15.90;99.90
21473;DHT22;10898;48.072;11.682;2022-08-21T05:23:19;15.90;99.90
21473;DHT22;10898;48.072;11.682;2022-08-21T05:25:21;15.90;99.90
21473;DHT22;10898;48.072;11.682;2022-08-21T05:27:24;15.90;99.90
21473;DHT22;10898;48.072;11.682;2022-08-21T05:29:28;15.90;99.90
21473;DHT22;10898;48.072;11.682;2022-08-21T05:31:33;16.00;99.90
21473;DHT22;10898;48.072;11.682;2022-08-21T05:33:35;16.00;99.90
21473;DHT22;10898;48.072;11.682;2022-08-21T05:35:40;16.00;99.90
21473;DHT22;10898;48.072;11.682;2022-08-21T05:37:42;16.00;99.90
21473;DHT22;10898;48.072;11.682;2022-08-21T05:39:44;16.00;99.90
21473;DHT22;10898;48.072;11.682;2022-08-21T05:42:06;16.10;99.90
21473;DHT22;10898;48.072;11.682;2022-08-21T05:44:08;16.10;99.90
21473;DHT22;10898;48.072;11.682;2022-08-21T05:46:12;16.10;99.90
21473;DHT22;10898;48.072;11.682;2022-08-21T05:48:17;16.20;99.90
21473;DHT22;10898;48.072;11.682;2022-08-21T05:50:19;16.20;99.90
21473;DHT22;10898;48.072;11.682;2022-08-21T05:52:21;16.30;99.90
21473;DHT22;10898;48.072;11.682;2022-08-21T05:54:23;16.20;99.90
21473;DHT22;10898;48.072;11.682;2022-08-21T05:56:25;16.30;99.90
21473;DHT22;10898;48.072;11.682;2022-08-21T05:58:27;16.30;99.90
21473;DHT22;10898;48.072;11.682;2022-08-21T06:00:29;16.30;99.90
21473;DHT22;10898;48.072;11.682;2022-08-21T06:02:31;16.40;99.90
21473;DHT22;10898;48.072;11.682;2022-08-21T06:04:38;16.40;99.90
21473;DHT22;10898;48.072;11.682;2022-08-21T06:06:40;16.40;99.90
21473;DHT22;10898;48.072;11.682;2022-08-21T06:08:42;16.40;99.90
21473;DHT22;10898;48.072;11.682;2022-08-21T06:10:45;16.40;99.90
21473;DHT22;10898;48.072;11.682;2022-08-21T06:12:52;16.40;99.90
21473;DHT22;10898;48.072;11.682;2022-08-21T06:14:54;16.50;99.90
21473;DHT22;10898;48.072;11.682;2022-08-21T06:17:03;16.50;99.90
21473;DHT22;10898;48.072;11.682;2022-08-21T06:19:04;16.50;99.90
21473;DHT22;10898;48.072;11.682;2022-08-21T06:21:07;16.60;99.90
21473;DHT22;10898;48.072;11.682;2022-08-21T06:23:09;16.60;99.90
21473;DHT22;10898;48.072;11.682;2022-08-21T06:25:11;16.60;99.90
21473;DHT22;10898;48.072;11.682;2022-08-21T06:27:13;16.70;99.90
21473;DHT22;10898;48.072;11.682;2022-08-21T06:29:16;16.80;99.90
21473;DHT22;10898;48.072;11.682;2022-08-21T06:31:23;16.80;99.90
21473;DHT22;10898;48.072;11.682;2022-08-21T06:33:25;16.80;99.90
21473;DHT22;10898;48.072;11.682;2022-08-21T06:35:33;16.90;99.90
21473;DHT22;10898;48.072;11.682;2022-08-21T06:37:35;17.00;99.90
21473;DHT22;10898;48.072;11.682;2022-08-21T06:39:37;17.00;99.90
21473;DHT22;10898;48.072;11.682;2022-08-21T06:41:45;17.10;99.90
21473;DHT22;10898;48.072;11.682;2022-08-21T06:43:48;17.10;99.90
21473;DHT22;10898;48.072;11.682;2022-08-21T06:45:50;17.20;99.90
21473;DHT22;10898;48.072;11.682;2022-08-21T06:47:52;17.30;99.90
21473;DHT22;10898;48.072;11.682;2022-08-21T06:49:54;17.30;99.90
21473;DHT22;10898;48.072;11.682;2022-08-21T06:51:56;17.40;99.90
21473;DHT22;10898;48.072;11.682;2022-08-21T06:53:58;17.50;99.90
21473;DHT22;10898;48.072;11.682;2022-08-21T06:56:00;17.50;99.90
21473;DHT22;10898;48.072;11.682;2022-08-21T06:58:03;17.60;99.90
21473;DHT22;10898;48.072;11.682;2022-08-21T07:00:06;17.60;99.90
21473;DHT22;10898;48.072;11.682;2022-08-21T07:02:08;17.70;99.90
21473;DHT22;10898;48.072;11.682;2022-08-21T07:04:10;17.70;99.90
21473;DHT22;10898;48.072;11.682;2022-08-21T07:06:12;17.80;99.90
21473;DHT22;10898;48.072;11.682;2022-08-21T07:08:14;17.80;99.90
21473;DHT22;10898;48.072;11.682;2022-08-21T07:10:16;17.90;99.90
21473;DHT22;10898;48.072;11.682;2022-08-21T07:12:23;17.90;99.90
21473;DHT22;10898;48.072;11.682;2022-08-21T07:14:25;18.00;99.90
21473;DHT22;10898;48.072;11.682;2022-08-21T07:16:27;18.10;99.90
21473;DHT22;10898;48.072;11.682;2022-08-21T07:18:28;18.10;99.90
21473;DHT22;10898;48.072;11.682;2022-08-21T07:20:31;18.10;99.90
21473;DHT22;10898;48.072;11.682;2022-08-21T07:22:35;18.20;99.90
21473;DHT22;10898;48.072;11.682;2022-08-21T07:24:37;18.30;99.90
21473;DHT22;10898;48.072;11.682;2022-08-21T07:26:39;18.30;99.90
21473;DHT22;10898;48.072;11.682;2022-08-21T07:28:41;18.40;99.90
21473;DHT22;10898;48.072;11.682;2022-08-21T07:30:43;18.40;99.90
21473;DHT22;10898;48.072;11.682;2022-08-21T07:32:45;18.50;99.90
21473;DHT22;10898;48.072;11.682;2022-08-21T07:34:47;18.50;99.90
21473;DHT22;10898;48.072;11.682;2022-08-21T07:36:49;18.60;99.90
21473;DHT22;10898;48.072;11.682;2022-08-21T07:38:50;18.60;99.90
21473;DHT22;10898;48.072;11.682;2022-08-21T07:40:54;18.70;99.90
21473;DHT22;10898;48.072;11.682;2022-08-21T07:42:56;18.70;99.90
21473;DHT22;10898;48.072;11.682;2022-08-21T07:44:58;18.70;99.90
21473;DHT22;10898;48.072;11.682;2022-08-21T07:47:01;18.80;99.90
21473;DHT22;10898;48.072;11.682;2022-08-21T07:49:03;18.80;99.90
21473;DHT22;10898;48.072;11.682;2022-08-21T07:51:10;18.90;99.90
21473;DHT22;10898;48.072;11.682;2022-08-21T07:53:12;18.90;99.90
21473;DHT22;10898;48.072;11.682;2022-08-21T07:55:17;19.00;99.90
21473;DHT22;10898;48.072;11.682;2022-08-21T07:57:20;19.10;99.90
21473;DHT22;10898;48.072;11.682;2022-08-21T07:59:22;19.10;99.90
21473;DHT22;10898;48.072;11.682;2022-08-21T08:01:24;19.20;99.90
21473;DHT22;10898;48.072;11.682;2022-08-21T08:03:26;19.30;99.90
21473;DHT22;10898;48.072;11.682;2022-08-21T08:05:31;19.30;99.90
21473;DHT22;10898;48.072;11.682;2022-08-21T08:07:33;19.40;99.90
21473;DHT22;10898;48.072;11.682;2022-08-21T08:09:35;19.40;99.90
21473;DHT22;10898;48.072;11.682;2022-08-21T08:11:39;19.50;99.90
21473;DHT22;10898;48.072;11.682;2022-08-21T08:13:45;19.60;99.90
21473;DHT22;10898;48.072;11.682;2022-08-21T08:15:47;19.60;99.90
21473;DHT22;10898;48.072;11.682;2022-08-21T08:17:48;19.70;99.90
21473;DHT22;10898;48.072;11.682;2022-08-21T08:19:50;19.70;99.90
21473;DHT22;10898;48.072;11.682;2022-08-21T08:21:52;19.80;99.90
21473;DHT22;10898;48.072;11.682;2022-08-21T08:23:54;19.90;99.90
21473;DHT22;10898;48.072;11.682;2022-08-21T08:25:56;19.90;99.90
21473;DHT22;10898;48.072;11.682;2022-08-21T08:27:58;19.90;99.90
21473;DHT22;10898;48.072;11.682;2022-08-21T08:30:00;20.00;99.90
21473;DHT22;10898;48.072;11.682;2022-08-21T08:32:04;20.00;99.90
21473;DHT22;10898;48.072;11.682;2022-08-21T08:34:08;20.10;99.90
21473;DHT22;10898;48.072;11.682;2022-08-21T08:36:32;20.10;99.90
21473;DHT22;10898;48.072;11.682;2022-08-21T08:38:35;20.20;99.90
21473;DHT22;10898;48.072;11.682;2022-08-21T08:40:44;20.20;99.90
21473;DHT22;10898;48.072;11.682;2022-08-21T08:42:47;20.30;99.90
21473;DHT22;10898;48.072;11.682;2022-08-21T08:44:53;20.30;99.90
21473;DHT22;10898;48.072;11.682;2022-08-21T08:46:57;20.40;99.90
21473;DHT22;10898;48.072;11.682;2022-08-21T08:49:08;20.50;99.90
21473;DHT22;10898;48.072;11.682;2022-08-21T08:51:48;20.50;99.90
21473;DHT22;10898;48.072;11.682;2022-08-21T08:54:00;20.60;99.90
21473;DHT22;10898;48.072;11.682;2022-08-21T08:56:04;20.70;99.90
21473;DHT22;10898;48.072;11.682;2022-08-21T08:58:14;20.70;99.90
21473;DHT22;10898;48.072;11.682;2022-08-21T09:00:20;20.80;99.90
21473;DHT22;10898;48.072;11.682;2022-08-21T09:02:24;20.80;99.90
21473;DHT22;10898;48.072;11.682;2022-08-21T09:04:28;20.90;99.90
21473;DHT22;10898;48.072;11.682;2022-08-21T09:07:01;20.90;99.90
21473;DHT22;10898;48.072;11.682;2022-08-21T09:28:13;21.50;99.90
21473;DHT22;10898;48.072;11.682;2022-08-21T09:30:16;21.50;99.90
21473;DHT22;10898;48.072;11.682;2022-08-21T09:32:25;21.50;99.90
21473;DHT22;10898;48.072;11.682;2022-08-21T09:34:38;21.60;99.90
21473;DHT22;10898;48.072;11.682;2022-08-21T09:36:50;21.70;99.90
21473;DHT22;10898;48.072;11.682;2022-08-21T09:38:54;21.80;99.90
21473;DHT22;10898;48.072;11.682;2022-08-21T09:40:59;21.80;99.90
21473;DHT22;10898;48.072;11.682;2022-08-21T09:45:17;22.10;99.90
21473;DHT22;10898;48.072;11.682;2022-08-21T09:47:19;22.20;99.90
21473;DHT22;10898;48.072;11.682;2022-08-21T09:49:33;22.20;99.90
21473;DHT22;10898;48.072;11.682;2022-08-21T09:51:36;22.20;99.90
21473;DHT22;10898;48.072;11.682;2022-08-21T09:53:42;22.20;99.90
21473;DHT22;10898;48.072;11.682;2022-08-21T09:56:00;22.10;99.90
21473;DHT22;10898;48.072;11.682;2022-08-21T09:58:32;22.20;99.90
21473;DHT22;10898;48.072;11.682;2022-08-21T10:00:35;22.30;99.90
21473;DHT22;10898;48.072;11.682;2022-08-21T10:02:37;22.20;99.90
21473;DHT22;10898;48.072;11.682;2022-08-21T10:04:39;22.20;99.90
21473;DHT22;10898;48.072;11.682;2022-08-21T10:06:47;22.20;99.90
21473;DHT22;10898;48.072;11.682;2022-08-21T10:08:49;22.30;99.90
21473;DHT22;10898;48.072;11.682;2022-08-21T10:10:56;22.40;99.90
21473;DHT22;10898;48.072;11.682;2022-08-21T10:17:49;22.60;99.80
21473;DHT22;10898;48.072;11.682;2022-08-21T10:20:05;22.70;99.90
21473;DHT22;10898;48.072;11.682;2022-08-21T10:24:40;22.80;99.10
21473;DHT22;10898;48.072;11.682;2022-08-21T10:29:17;22.90;96.30
21473;DHT22;10898;48.072;11.682;2022-08-21T10:36:29;23.30;98.50
21473;DHT22;10898;48.072;11.682;2022-08-21T10:38:54;23.30;98.40
21473;DHT22;10898;48.072;11.682;2022-08-21T10:48:29;23.40;97.70
21473;DHT22;10898;48.072;11.682;2022-08-21T10:55:17;23.40;96.60
21473;DHT22;10898;48.072;11.682;2022-08-21T10:57:30;23.40;96.10
21473;DHT22;10898;48.072;11.682;2022-08-21T10:59:42;23.40;95.20
21473;DHT22;10898;48.072;11.682;2022-08-21T11:02:11;23.50;95.40
21473;DHT22;10898;48.072;11.682;2022-08-21T11:04:23;23.60;97.00
21473;DHT22;10898;48.072;11.682;2022-08-21T11:06:38;23.70;98.20
21473;DHT22;10898;48.072;11.682;2022-08-21T11:08:45;23.70;97.90
21473;DHT22;10898;48.072;11.682;2022-08-21T11:13:27;23.60;97.20
21473;DHT22;10898;48.072;11.682;2022-08-21T11:20:40;23.40;99.40
21473;DHT22;10898;48.072;11.682;2022-08-21T11:23:14;23.40;99.70
21473;DHT22;10898;48.072;11.682;2022-08-21T11:25:22;23.40;99.30
21473;DHT22;10898;48.072;11.682;2022-08-21T11:29:57;23.50;99.90
21473;DHT22;10898;48.072;11.682;2022-08-21T11:39:36;23.80;95.40
21473;DHT22;10898;48.072;11.682;2022-08-21T11:41:46;23.90;96.00
21473;DHT22;10898;48.072;11.682;2022-08-21T11:47:15;24.20;92.30
21473;DHT22;10898;48.072;11.682;2022-08-21T11:51:48;24.30;92.70
21473;DHT22;10898;48.072;11.682;2022-08-21T11:54:19;24.40;92.80
21473;DHT22;10898;48.072;11.682;2022-08-21T11:56:28;24.50;94.10
21473;DHT22;10898;48.072;11.682;2022-08-21T11:58:41;24.50;94.80
21473;DHT22;10898;48.072;11.682;2022-08-21T12:01:01;24.50;94.10
21473;DHT22;10898;48.072;11.682;2022-08-21T12:03:17;24.50;94.50
21473;DHT22;10898;48.072;11.682;2022-08-21T12:05:36;24.40;94.30
21473;DHT22;10898;48.072;11.682;2022-08-21T12:07:42;24.30;94.10
21473;DHT22;10898;48.072;11.682;2022-08-21T12:09:56;24.20;94.50
21473;DHT22;10898;48.072;11.682;2022-08-21T12:12:23;24.10;93.50
21473;DHT22;10898;48.072;11.682;2022-08-21T12:14:38;23.90;93.80
21473;DHT22;10898;48.072;11.682;2022-08-21T12:16:43;23.90;93.80
21473;DHT22;10898;48.072;11.682;2022-08-21T12:18:45;23.80;94.70
21473;DHT22;10898;48.072;11.682;2022-08-21T12:21:19;23.80;95.20
21473;DHT22;10898;48.072;11.682;2022-08-21T12:23:31;23.80;94.40
21473;DHT22;10898;48.072;11.682;2022-08-21T12:26:09;23.70;94.10
21473;DHT22;10898;48.072;11.682;2022-08-21T12:28:21;23.70;94.80
21473;DHT22;10898;48.072;11.682;2022-08-21T12:32:42;23.70;93.50
21473;DHT22;10898;48.072;11.682;2022-08-21T12:34:55;23.80;95.20
21473;DHT22;10898;48.072;11.682;2022-08-21T12:37:03;23.90;95.50
21473;DHT22;10898;48.072;11.682;2022-08-21T12:39:12;24.00;93.50
21473;DHT22;10898;48.072;11.682;2022-08-21T12:41:45;24.10;93.80
21473;DHT22;10898;48.072;11.682;2022-08-21T12:43:58;24.10;94.40
21473;DHT22;10898;48.072;11.682;2022-08-21T12:46:01;24.10;89.50
21473;DHT22;10898;48.072;11.682;2022-08-21T12:50:47;24.10;90.70
21473;DHT22;10898;48.072;11.682;2022-08-21T12:53:24;24.10;90.10
21473;DHT22;10898;48.072;11.682;2022-08-21T12:55:28;24.10;89.40
21473;DHT22;10898;48.072;11.682;2022-08-21T12:57:30;24.00;90.70
21473;DHT22;10898;48.072;11.682;2022-08-21T12:59:37;24.00;90.50
21473;DHT22;10898;48.072;11.682;2022-08-21T13:01:47;24.00;91.10
21473;DHT22;10898;48.072;11.682;2022-08-21T13:03:51;24.00;91.40
21473;DHT22;10898;48.072;11.682;2022-08-21T13:06:06;23.90;91.00
21473;DHT22;10898;48.072;11.682;2022-08-21T13:08:11;23.90;91.00
21473;DHT22;10898;48.072;11.682;2022-08-21T13:10:21;23.90;91.20
21473;DHT22;10898;48.072;11.682;2022-08-21T13:12:24;23.90;91.90
21473;DHT22;10898;48.072;11.682;2022-08-21T13:14:38;23.80;92.20
21473;DHT22;10898;48.072;11.682;2022-08-21T13:16:47;23.80;91.80
21473;DHT22;10898;48.072;11.682;2022-08-21T13:19:02;23.70;92.60
21473;DHT22;10898;48.072;11.682;2022-08-21T13:21:06;23.80;92.80
21473;DHT22;10898;48.072;11.682;2022-08-21T13:23:24;23.90;92.60
21473;DHT22;10898;48.072;11.682;2022-08-21T13:25:29;24.00;91.70
21473;DHT22;10898;48.072;11.682;2022-08-21T13:27:31;24.20;91.80
21473;DHT22;10898;48.072;11.682;2022-08-21T13:29:34;24.40;91.00
21473;DHT22;10898;48.072;11.682;2022-08-21T13:31:41;24.60;90.50
21473;DHT22;10898;48.072;11.682;2022-08-21T13:33:44;24.80;90.00
21473;DHT22;10898;48.072;11.682;2022-08-21T13:38:05;25.00;90.20
21473;DHT22;10898;48.072;11.682;2022-08-21T13:40:17;25.10;90.00
21473;DHT22;10898;48.072;11.682;2022-08-21T13:42:20;25.20;87.60
21473;DHT22;10898;48.072;11.682;2022-08-21T13:44:23;25.30;85.60
21473;DHT22;10898;48.072;11.682;2022-08-21T13:46:31;25.50;85.30
21473;DHT22;10898;48.072;11.682;2022-08-21T13:48:34;25.70;83.90
21473;DHT22;10898;48.072;11.682;2022-08-21T13:50:38;25.90;85.50
21473;DHT22;10898;48.072;11.682;2022-08-21T13:53:19;26.20;81.60
21473;DHT22;10898;48.072;11.682;2022-08-21T13:55:15;26.40;81.00
21473;DHT22;10898;48.072;11.682;2022-08-21T13:57:25;26.60;82.80
21473;DHT22;10898;48.072;11.682;2022-08-21T13:59:34;26.80;76.80
21473;DHT22;10898;48.072;11.682;2022-08-21T14:01:54;26.70;75.10
21473;DHT22;10898;48.072;11.682;2022-08-21T14:04:07;26.70;76.50
21473;DHT22;10898;48.072;11.682;2022-08-21T14:06:20;26.60;73.40
21473;DHT22;10898;48.072;11.682;2022-08-21T14:08:32;26.50;75.90
21473;DHT22;10898;48.072;11.682;2022-08-21T14:10:43;26.40;76.00
21473;DHT22;10898;48.072;11.682;2022-08-21T14:14:51;26.60;76.60
21473;DHT22;10898;48.072;11.682;2022-08-21T14:21:07;27.10;73.10
21473;DHT22;10898;48.072;11.682;2022-08-21T14:23:09;27.30;74.00
21473;DHT22;10898;48.072;11.682;2022-08-21T14:27:23;27.70;69.00